sensor_id;sensor_type;location;lat;lon;timestamp;P1;durP1;ratioP1;P2;durP2;ratioP2
66429;SDS011;53242;51.694;10.006;2023-07-16T00:01:50;6.22;;;3.22;;
66429;SDS011;53242;51.694;10.006;2023-07-16T00:04:13;6.97;;;2.88;;
66429;SDS011;53242;51.694;10.006;2023-07-16T00:06:35;6.32;;;2.78;;
66429;SDS011;53242;51.694;10.006;2023-07-16T00:08:58;8.27;;;3.25;;
66429;SDS011;53242;51.694;10.006;2023-07-16T00:11:21;5.72;;;2.70;;
66429;SDS011;53242;51.694;10.006;2023-07-16T00:13:44;6.00;;;3.10;;
66429;SDS011;53242;51.694;10.006;2023-07-16T00:16:09;6.85;;;3.20;;
66429;SDS011;53242;51.694;10.006;2023-07-16T00:18:31;7.18;;;2.92;;
66429;SDS011;53242;51.694;10.006;2023-07-16T00:20:53;7.55;;;2.80;;
66429;SDS011;53242;51.694;10.006;2023-07-16T00:23:16;5.93;;;2.70;;
66429;SDS011;53242;51.694;10.006;2023-07-16T00:25:38;6.07;;;2.72;;
66429;SDS011;53242;51.694;10.006;2023-07-16T00:28:01;5.07;;;2.45;;
66429;SDS011;53242;51.694;10.006;2023-07-16T00:30:23;7.50;;;2.83;;
66429;SDS011;53242;51.694;10.006;2023-07-16T00:32:45;8.38;;;3.08;;
66429;SDS011;53242;51.694;10.006;2023-07-16T00:35:08;5.95;;;2.50;;
66429;SDS011;53242;51.694;10.006;2023-07-16T00:37:31;6.57;;;2.80;;
66429;SDS011;53242;51.694;10.006;2023-07-16T00:39:53;5.22;;;2.20;;
66429;SDS011;53242;51.694;10.006;2023-07-16T00:42:15;5.75;;;2.30;;
66429;SDS011;53242;51.694;10.006;2023-07-16T00:44:39;5.20;;;2.42;;
66429;SDS011;53242;51.694;10.006;2023-07-16T00:47:02;6.60;;;2.50;;
66429;SDS011;53242;51.694;10.006;2023-07-16T00:49:24;4.68;;;2.30;;
66429;SDS011;53242;51.694;10.006;2023-07-16T00:51:48;5.72;;;2.38;;
66429;SDS011;53242;51.694;10.006;2023-07-16T00:54:12;6.45;;;2.22;;
66429;SDS011;53242;51.694;10.006;2023-07-16T00:56:37;5.30;;;2.38;;
66429;SDS011;53242;51.694;10.006;2023-07-16T00:59:00;4.88;;;1.95;;
66429;SDS011;53242;51.694;10.006;2023-07-16T01:01:22;3.88;;;2.10;;
66429;SDS011;53242;51.694;10.006;2023-07-16T01:03:45;6.72;;;2.65;;
66429;SDS011;53242;51.694;10.006;2023-07-16T01:06:12;4.82;;;2.25;;
66429;SDS011;53242;51.694;10.006;2023-07-16T01:08:48;5.57;;;2.50;;
66429;SDS011;53242;51.694;10.006;2023-07-16T01:11:15;3.55;;;2.10;;
66429;SDS011;53242;51.694;10.006;2023-07-16T01:13:38;4.45;;;2.38;;
66429;SDS011;53242;51.694;10.006;2023-07-16T01:16:03;4.28;;;2.20;;
66429;SDS011;53242;51.694;10.006;2023-07-16T01:18:25;6.03;;;2.60;;
66429;SDS011;53242;51.694;10.006;2023-07-16T01:20:48;5.25;;;2.42;;
66429;SDS011;53242;51.694;10.006;2023-07-16T01:33:35;4.90;;;2.33;;
66429;SDS011;53242;51.694;10.006;2023-07-16T01:36:00;6.72;;;2.30;;
66429;SDS011;53242;51.694;10.006;2023-07-16T01:38:24;4.20;;;2.10;;
66429;SDS011;53242;51.694;10.006;2023-07-16T01:40:46;6.18;;;2.10;;
66429;SDS011;53242;51.694;10.006;2023-07-16T01:43:09;4.78;;;2.35;;
66429;SDS011;53242;51.694;10.006;2023-07-16T01:45:31;5.53;;;2.25;;
66429;SDS011;53242;51.694;10.006;2023-07-16T01:48:14;5.40;;;2.30;;
66429;SDS011;53242;51.694;10.006;2023-07-16T01:50:46;7.55;;;2.38;;
66429;SDS011;53242;51.694;10.006;2023-07-16T01:53:09;6.22;;;2.50;;
66429;SDS011;53242;51.694;10.006;2023-07-16T01:55:31;5.40;;;2.38;;
66429;SDS011;53242;51.694;10.006;2023-07-16T01:57:54;4.85;;;2.33;;
66429;SDS011;53242;51.694;10.006;2023-07-16T02:00:16;5.97;;;2.42;;
66429;SDS011;53242;51.694;10.006;2023-07-16T02:02:41;4.72;;;2.40;;
66429;SDS011;53242;51.694;10.006;2023-07-16T02:05:04;3.88;;;1.85;;
66429;SDS011;53242;51.694;10.006;2023-07-16T02:07:26;5.63;;;2.30;;
66429;SDS011;53242;51.694;10.006;2023-07-16T02:09:49;6.93;;;2.30;;
66429;SDS011;53242;51.694;10.006;2023-07-16T02:12:12;5.75;;;2.33;;
66429;SDS011;53242;51.694;10.006;2023-07-16T02:14:34;5.25;;;2.20;;
66429;SDS011;53242;51.694;10.006;2023-07-16T02:16:56;3.15;;;2.10;;
66429;SDS011;53242;51.694;10.006;2023-07-16T02:19:21;5.25;;;2.40;;
66429;SDS011;53242;51.694;10.006;2023-07-16T02:21:43;4.90;;;2.08;;
66429;SDS011;53242;51.694;10.006;2023-07-16T02:24:05;6.28;;;2.33;;
66429;SDS011;53242;51.694;10.006;2023-07-16T02:26:29;5.70;;;2.70;;
66429;SDS011;53242;51.694;10.006;2023-07-16T02:28:52;6.47;;;2.53;;
66429;SDS011;53242;51.694;10.006;2023-07-16T02:31:14;5.03;;;2.35;;
66429;SDS011;53242;51.694;10.006;2023-07-16T02:33:37;4.28;;;2.00;;
66429;SDS011;53242;51.694;10.006;2023-07-16T02:35:59;5.47;;;2.10;;
66429;SDS011;53242;51.694;10.006;2023-07-16T02:38:21;8.32;;;2.45;;
66429;SDS011;53242;51.694;10.006;2023-07-16T02:40:45;5.03;;;2.10;;
66429;SDS011;53242;51.694;10.006;2023-07-16T02:43:07;5.20;;;1.77;;
66429;SDS011;53242;51.694;10.006;2023-07-16T02:45:30;5.30;;;1.90;;
66429;SDS011;53242;51.694;10.006;2023-07-16T02:47:52;4.40;;;1.95;;
66429;SDS011;53242;51.694;10.006;2023-07-16T02:50:15;4.97;;;1.98;;
66429;SDS011;53242;51.694;10.006;2023-07-16T02:52:37;6.00;;;2.17;;
66429;SDS011;53242;51.694;10.006;2023-07-16T02:55:00;4.43;;;1.58;;
66429;SDS011;53242;51.694;10.006;2023-07-16T02:57:22;5.10;;;1.60;;
66429;SDS011;53242;51.694;10.006;2023-07-16T02:59:45;3.95;;;2.10;;
66429;SDS011;53242;51.694;10.006;2023-07-16T03:02:07;3.67;;;1.77;;
66429;SDS011;53242;51.694;10.006;2023-07-16T03:04:29;4.88;;;2.10;;
66429;SDS011;53242;51.694;10.006;2023-07-16T03:06:52;4.30;;;2.35;;
66429;SDS011;53242;51.694;10.006;2023-07-16T03:09:14;6.65;;;2.28;;
66429;SDS011;53242;51.694;10.006;2023-07-16T03:11:37;7.50;;;2.17;;
66429;SDS011;53242;51.694;10.006;2023-07-16T03:13:59;4.63;;;1.92;;
66429;SDS011;53242;51.694;10.006;2023-07-16T03:16:21;3.92;;;1.98;;
66429;SDS011;53242;51.694;10.006;2023-07-16T03:18:44;4.45;;;1.90;;
66429;SDS011;53242;51.694;10.006;2023-07-16T03:21:07;2.92;;;1.75;;
66429;SDS011;53242;51.694;10.006;2023-07-16T03:23:29;6.47;;;2.47;;
66429;SDS011;53242;51.694;10.006;2023-07-16T03:25:52;5.95;;;2.25;;
66429;SDS011;53242;51.694;10.006;2023-07-16T03:28:14;4.60;;;2.17;;
66429;SDS011;53242;51.694;10.006;2023-07-16T03:30:37;4.75;;;2.33;;
66429;SDS011;53242;51.694;10.006;2023-07-16T03:32:59;4.13;;;2.28;;
66429;SDS011;53242;51.694;10.006;2023-07-16T03:35:22;4.38;;;2.38;;
66429;SDS011;53242;51.694;10.006;2023-07-16T03:37:44;5.93;;;2.30;;
66429;SDS011;53242;51.694;10.006;2023-07-16T03:40:13;4.75;;;2.20;;
66429;SDS011;53242;51.694;10.006;2023-07-16T03:42:42;4.93;;;2.17;;
66429;SDS011;53242;51.694;10.006;2023-07-16T03:45:05;5.18;;;2.40;;
66429;SDS011;53242;51.694;10.006;2023-07-16T03:47:28;5.32;;;2.33;;
66429;SDS011;53242;51.694;10.006;2023-07-16T03:49:51;5.78;;;3.03;;
66429;SDS011;53242;51.694;10.006;2023-07-16T03:52:13;5.63;;;2.40;;
66429;SDS011;53242;51.694;10.006;2023-07-16T03:54:36;7.13;;;2.10;;
66429;SDS011;53242;51.694;10.006;2023-07-16T03:56:58;4.93;;;2.40;;
66429;SDS011;53242;51.694;10.006;2023-07-16T03:59:21;4.35;;;2.25;;
66429;SDS011;53242;51.694;10.006;2023-07-16T04:01:44;6.55;;;2.15;;
66429;SDS011;53242;51.694;10.006;2023-07-16T04:04:06;6.28;;;2.20;;
66429;SDS011;53242;51.694;10.006;2023-07-16T04:06:29;5.50;;;2.30;;
66429;SDS011;53242;51.694;10.006;2023-07-16T04:08:51;4.65;;;1.90;;
66429;SDS011;53242;51.694;10.006;2023-07-16T04:11:14;5.47;;;1.98;;
66429;SDS011;53242;51.694;10.006;2023-07-16T04:13:36;5.25;;;2.15;;
66429;SDS011;53242;51.694;10.006;2023-07-16T04:15:59;6.15;;;2.20;;
66429;SDS011;53242;51.694;10.006;2023-07-16T04:18:21;6.78;;;2.28;;
66429;SDS011;53242;51.694;10.006;2023-07-16T04:20:44;4.82;;;2.00;;
66429;SDS011;53242;51.694;10.006;2023-07-16T04:23:06;3.25;;;1.70;;
66429;SDS011;53242;51.694;10.006;2023-07-16T04:25:29;3.85;;;2.05;;
66429;SDS011;53242;51.694;10.006;2023-07-16T04:27:51;4.13;;;2.03;;
66429;SDS011;53242;51.694;10.006;2023-07-16T04:30:13;8.18;;;2.83;;
66429;SDS011;53242;51.694;10.006;2023-07-16T04:32:36;3.28;;;1.90;;
66429;SDS011;53242;51.694;10.006;2023-07-16T04:34:58;5.18;;;2.15;;
66429;SDS011;53242;51.694;10.006;2023-07-16T04:37:21;5.07;;;1.92;;
66429;SDS011;53242;51.694;10.006;2023-07-16T04:39:43;4.57;;;1.88;;
66429;SDS011;53242;51.694;10.006;2023-07-16T04:42:06;6.03;;;1.73;;
66429;SDS011;53242;51.694;10.006;2023-07-16T04:44:28;4.22;;;2.00;;
66429;SDS011;53242;51.694;10.006;2023-07-16T04:46:50;6.50;;;1.88;;
66429;SDS011;53242;51.694;10.006;2023-07-16T04:49:13;4.32;;;1.65;;
66429;SDS011;53242;51.694;10.006;2023-07-16T04:51:35;5.28;;;1.90;;
66429;SDS011;53242;51.694;10.006;2023-07-16T04:53:58;4.55;;;1.65;;
66429;SDS011;53242;51.694;10.006;2023-07-16T04:56:20;4.30;;;1.70;;
66429;SDS011;53242;51.694;10.006;2023-07-16T04:58:42;3.92;;;1.70;;
66429;SDS011;53242;51.694;10.006;2023-07-16T05:01:05;4.30;;;1.70;;
66429;SDS011;53242;51.694;10.006;2023-07-16T05:03:27;3.45;;;1.70;;
66429;SDS011;53242;51.694;10.006;2023-07-16T05:05:50;4.05;;;1.52;;
66429;SDS011;53242;51.694;10.006;2023-07-16T05:08:12;4.82;;;1.70;;
66429;SDS011;53242;51.694;10.006;2023-07-16T05:10:34;4.47;;;1.60;;
66429;SDS011;53242;51.694;10.006;2023-07-16T05:12:57;6.15;;;1.65;;
66429;SDS011;53242;51.694;10.006;2023-07-16T05:15:19;4.15;;;1.50;;
66429;SDS011;53242;51.694;10.006;2023-07-16T05:17:42;3.05;;;1.40;;
66429;SDS011;53242;51.694;10.006;2023-07-16T05:20:05;3.80;;;1.50;;
66429;SDS011;53242;51.694;10.006;2023-07-16T05:22:28;5.40;;;1.35;;
66429;SDS011;53242;51.694;10.006;2023-07-16T05:24:50;2.88;;;1.52;;
66429;SDS011;53242;51.694;10.006;2023-07-16T05:27:12;5.82;;;1.58;;
66429;SDS011;53242;51.694;10.006;2023-07-16T05:29:35;2.55;;;1.33;;
66429;SDS011;53242;51.694;10.006;2023-07-16T05:31:57;4.20;;;1.27;;
66429;SDS011;53242;51.694;10.006;2023-07-16T05:34:20;2.10;;;1.10;;
66429;SDS011;53242;51.694;10.006;2023-07-16T05:36:42;3.15;;;1.50;;
66429;SDS011;53242;51.694;10.006;2023-07-16T05:39:06;4.75;;;1.55;;
66429;SDS011;53242;51.694;10.006;2023-07-16T05:41:30;4.50;;;1.60;;
66429;SDS011;53242;51.694;10.006;2023-07-16T05:43:53;3.80;;;1.58;;
66429;SDS011;53242;51.694;10.006;2023-07-16T05:46:15;6.70;;;1.40;;
66429;SDS011;53242;51.694;10.006;2023-07-16T05:48:37;3.03;;;1.50;;
66429;SDS011;53242;51.694;10.006;2023-07-16T05:51:00;3.53;;;1.42;;
66429;SDS011;53242;51.694;10.006;2023-07-16T05:53:22;4.25;;;1.30;;
66429;SDS011;53242;51.694;10.006;2023-07-16T05:55:45;5.85;;;1.33;;
66429;SDS011;53242;51.694;10.006;2023-07-16T05:58:07;4.90;;;1.50;;
66429;SDS011;53242;51.694;10.006;2023-07-16T06:00:30;3.40;;;1.25;;
66429;SDS011;53242;51.694;10.006;2023-07-16T06:02:53;4.90;;;1.50;;
66429;SDS011;53242;51.694;10.006;2023-07-16T06:05:15;3.38;;;1.38;;
66429;SDS011;53242;51.694;10.006;2023-07-16T06:07:38;3.60;;;1.38;;
66429;SDS011;53242;51.694;10.006;2023-07-16T06:10:00;3.28;;;1.60;;
66429;SDS011;53242;51.694;10.006;2023-07-16T06:12:22;6.18;;;1.40;;
66429;SDS011;53242;51.694;10.006;2023-07-16T06:14:45;3.13;;;1.13;;
66429;SDS011;53242;51.694;10.006;2023-07-16T06:17:07;5.07;;;1.50;;
66429;SDS011;53242;51.694;10.006;2023-07-16T06:19:30;5.07;;;1.33;;
66429;SDS011;53242;51.694;10.006;2023-07-16T06:21:53;4.78;;;1.50;;
66429;SDS011;53242;51.694;10.006;2023-07-16T06:24:15;6.13;;;1.52;;
66429;SDS011;53242;51.694;10.006;2023-07-16T06:26:38;6.90;;;1.30;;
66429;SDS011;53242;51.694;10.006;2023-07-16T06:29:00;3.08;;;1.20;;
66429;SDS011;53242;51.694;10.006;2023-07-16T06:31:22;5.65;;;1.40;;
66429;SDS011;53242;51.694;10.006;2023-07-16T06:33:45;3.45;;;1.15;;
66429;SDS011;53242;51.694;10.006;2023-07-16T06:36:08;5.97;;;1.67;;
66429;SDS011;53242;51.694;10.006;2023-07-16T06:38:31;4.25;;;1.30;;
66429;SDS011;53242;51.694;10.006;2023-07-16T06:40:53;6.32;;;1.60;;
66429;SDS011;53242;51.694;10.006;2023-07-16T06:43:16;6.05;;;1.50;;
66429;SDS011;53242;51.694;10.006;2023-07-16T06:45:39;6.28;;;1.40;;
66429;SDS011;53242;51.694;10.006;2023-07-16T06:48:01;6.22;;;1.33;;
66429;SDS011;53242;51.694;10.006;2023-07-16T06:50:24;4.03;;;1.50;;
66429;SDS011;53242;51.694;10.006;2023-07-16T06:52:46;5.07;;;1.38;;
66429;SDS011;53242;51.694;10.006;2023-07-16T06:55:09;3.00;;;1.40;;
66429;SDS011;53242;51.694;10.006;2023-07-16T06:57:31;6.10;;;1.45;;
66429;SDS011;53242;51.694;10.006;2023-07-16T06:59:53;3.25;;;1.30;;
66429;SDS011;53242;51.694;10.006;2023-07-16T07:02:16;5.18;;;1.40;;
66429;SDS011;53242;51.694;10.006;2023-07-16T07:04:39;3.17;;;1.30;;
66429;SDS011;53242;51.694;10.006;2023-07-16T07:07:01;3.83;;;1.27;;
66429;SDS011;53242;51.694;10.006;2023-07-16T07:09:24;5.25;;;1.33;;
66429;SDS011;53242;51.694;10.006;2023-07-16T07:11:46;8.30;;;1.85;;
66429;SDS011;53242;51.694;10.006;2023-07-16T07:14:09;3.50;;;1.45;;
66429;SDS011;53242;51.694;10.006;2023-07-16T07:16:31;2.17;;;1.02;;
66429;SDS011;53242;51.694;10.006;2023-07-16T07:18:54;3.55;;;1.02;;
66429;SDS011;53242;51.694;10.006;2023-07-16T07:21:16;5.25;;;1.10;;
66429;SDS011;53242;51.694;10.006;2023-07-16T07:23:38;4.70;;;1.05;;
66429;SDS011;53242;51.694;10.006;2023-07-16T07:26:02;4.43;;;1.05;;
66429;SDS011;53242;51.694;10.006;2023-07-16T07:28:24;4.88;;;1.05;;
66429;SDS011;53242;51.694;10.006;2023-07-16T07:30:47;2.92;;;1.20;;
66429;SDS011;53242;51.694;10.006;2023-07-16T07:33:09;3.20;;;1.30;;
66429;SDS011;53242;51.694;10.006;2023-07-16T07:35:31;2.85;;;1.17;;
66429;SDS011;53242;51.694;10.006;2023-07-16T07:37:54;6.32;;;1.50;;
66429;SDS011;53242;51.694;10.006;2023-07-16T07:40:16;2.72;;;1.30;;
66429;SDS011;53242;51.694;10.006;2023-07-16T07:42:39;2.83;;;1.20;;
66429;SDS011;53242;51.694;10.006;2023-07-16T07:45:01;3.88;;;1.35;;
66429;SDS011;53242;51.694;10.006;2023-07-16T07:47:24;3.47;;;1.00;;
66429;SDS011;53242;51.694;10.006;2023-07-16T07:49:47;3.90;;;1.35;;
66429;SDS011;53242;51.694;10.006;2023-07-16T07:52:09;3.67;;;1.35;;
66429;SDS011;53242;51.694;10.006;2023-07-16T07:54:31;3.72;;;1.40;;
66429;SDS011;53242;51.694;10.006;2023-07-16T07:56:55;4.53;;;1.13;;
66429;SDS011;53242;51.694;10.006;2023-07-16T07:59:17;3.65;;;1.30;;
66429;SDS011;53242;51.694;10.006;2023-07-16T08:01:39;2.80;;;1.20;;
66429;SDS011;53242;51.694;10.006;2023-07-16T08:04:02;2.92;;;1.10;;
66429;SDS011;53242;51.694;10.006;2023-07-16T08:06:25;3.33;;;1.55;;
66429;SDS011;53242;51.694;10.006;2023-07-16T08:08:48;4.30;;;1.48;;
66429;SDS011;53242;51.694;10.006;2023-07-16T08:11:10;2.47;;;1.05;;
66429;SDS011;53242;51.694;10.006;2023-07-16T08:13:33;3.40;;;1.15;;
66429;SDS011;53242;51.694;10.006;2023-07-16T08:15:55;3.28;;;1.33;;
66429;SDS011;53242;51.694;10.006;2023-07-16T08:18:17;4.72;;;1.13;;
66429;SDS011;53242;51.694;10.006;2023-07-16T08:20:40;5.38;;;1.60;;
66429;SDS011;53242;51.694;10.006;2023-07-16T08:23:05;4.88;;;1.52;;
66429;SDS011;53242;51.694;10.006;2023-07-16T08:25:28;6.70;;;1.55;;
66429;SDS011;53242;51.694;10.006;2023-07-16T08:27:50;4.07;;;1.40;;
66429;SDS011;53242;51.694;10.006;2023-07-16T08:30:13;5.13;;;1.40;;
66429;SDS011;53242;51.694;10.006;2023-07-16T08:32:36;4.25;;;1.48;;
66429;SDS011;53242;51.694;10.006;2023-07-16T08:34:58;4.40;;;1.63;;
66429;SDS011;53242;51.694;10.006;2023-07-16T08:37:20;3.72;;;1.20;;
66429;SDS011;53242;51.694;10.006;2023-07-16T08:39:43;2.08;;;1.27;;
66429;SDS011;53242;51.694;10.006;2023-07-16T08:42:05;4.05;;;1.23;;
66429;SDS011;53242;51.694;10.006;2023-07-16T08:44:30;3.28;;;1.08;;
66429;SDS011;53242;51.694;10.006;2023-07-16T08:46:53;3.70;;;1.30;;
66429;SDS011;53242;51.694;10.006;2023-07-16T08:49:17;4.93;;;1.30;;
66429;SDS011;53242;51.694;10.006;2023-07-16T08:51:41;4.82;;;1.48;;
66429;SDS011;53242;51.694;10.006;2023-07-16T08:54:04;2.88;;;1.20;;
66429;SDS011;53242;51.694;10.006;2023-07-16T08:56:26;5.57;;;1.35;;
66429;SDS011;53242;51.694;10.006;2023-07-16T08:58:49;5.75;;;1.50;;
66429;SDS011;53242;51.694;10.006;2023-07-16T09:01:12;2.47;;;1.02;;
66429;SDS011;53242;51.694;10.006;2023-07-16T09:03:35;5.05;;;1.33;;
66429;SDS011;53242;51.694;10.006;2023-07-16T09:05:58;6.85;;;1.60;;
66429;SDS011;53242;51.694;10.006;2023-07-16T09:08:20;4.20;;;1.08;;
66429;SDS011;53242;51.694;10.006;2023-07-16T09:10:43;3.20;;;1.30;;
66429;SDS011;53242;51.694;10.006;2023-07-16T09:13:05;6.00;;;1.45;;
66429;SDS011;53242;51.694;10.006;2023-07-16T09:15:28;3.22;;;1.30;;
66429;SDS011;53242;51.694;10.006;2023-07-16T09:17:53;2.88;;;1.23;;
66429;SDS011;53242;51.694;10.006;2023-07-16T09:20:16;5.05;;;1.30;;
66429;SDS011;53242;51.694;10.006;2023-07-16T09:22:39;5.13;;;1.15;;
66429;SDS011;53242;51.694;10.006;2023-07-16T09:25:01;3.50;;;1.23;;
66429;SDS011;53242;51.694;10.006;2023-07-16T09:27:28;3.92;;;1.50;;
66429;SDS011;53242;51.694;10.006;2023-07-16T09:29:51;6.22;;;1.48;;
66429;SDS011;53242;51.694;10.006;2023-07-16T09:32:13;3.50;;;1.30;;
66429;SDS011;53242;51.694;10.006;2023-07-16T09:34:36;4.50;;;1.35;;
66429;SDS011;53242;51.694;10.006;2023-07-16T09:37:00;4.75;;;1.60;;
66429;SDS011;53242;51.694;10.006;2023-07-16T09:39:23;4.43;;;1.20;;
66429;SDS011;53242;51.694;10.006;2023-07-16T09:41:47;5.82;;;1.50;;
66429;SDS011;53242;51.694;10.006;2023-07-16T09:44:11;4.20;;;1.27;;
66429;SDS011;53242;51.694;10.006;2023-07-16T09:46:34;2.60;;;1.45;;
66429;SDS011;53242;51.694;10.006;2023-07-16T09:48:56;5.28;;;1.70;;
66429;SDS011;53242;51.694;10.006;2023-07-16T09:51:18;4.38;;;1.45;;
66429;SDS011;53242;51.694;10.006;2023-07-16T09:53:42;5.95;;;1.50;;
66429;SDS011;53242;51.694;10.006;2023-07-16T09:56:06;4.97;;;1.50;;
66429;SDS011;53242;51.694;10.006;2023-07-16T09:58:32;2.53;;;1.10;;
66429;SDS011;53242;51.694;10.006;2023-07-16T10:00:54;5.45;;;1.35;;
66429;SDS011;53242;51.694;10.006;2023-07-16T10:03:18;4.50;;;1.38;;
66429;SDS011;53242;51.694;10.006;2023-07-16T10:05:40;3.05;;;1.33;;
66429;SDS011;53242;51.694;10.006;2023-07-16T10:08:02;5.93;;;1.50;;
66429;SDS011;53242;51.694;10.006;2023-07-16T10:10:45;6.05;;;1.50;;
66429;SDS011;53242;51.694;10.006;2023-07-16T10:13:15;3.63;;;1.52;;
66429;SDS011;53242;51.694;10.006;2023-07-16T10:15:38;6.68;;;1.60;;
66429;SDS011;53242;51.694;10.006;2023-07-16T10:18:01;4.05;;;1.58;;
66429;SDS011;53242;51.694;10.006;2023-07-16T10:20:31;5.95;;;1.70;;
66429;SDS011;53242;51.694;10.006;2023-07-16T10:22:55;5.38;;;1.65;;
66429;SDS011;53242;51.694;10.006;2023-07-16T10:27:40;4.55;;;1.80;;
66429;SDS011;53242;51.694;10.006;2023-07-16T10:30:03;3.63;;;1.70;;
66429;SDS011;53242;51.694;10.006;2023-07-16T10:32:27;3.65;;;1.52;;
66429;SDS011;53242;51.694;10.006;2023-07-16T10:34:50;4.18;;;1.48;;
66429;SDS011;53242;51.694;10.006;2023-07-16T10:37:13;2.90;;;1.30;;
66429;SDS011;53242;51.694;10.006;2023-07-16T10:39:35;5.75;;;1.63;;
66429;SDS011;53242;51.694;10.006;2023-07-16T10:41:57;3.30;;;1.55;;
66429;SDS011;53242;51.694;10.006;2023-07-16T10:44:20;4.65;;;1.60;;
66429;SDS011;53242;51.694;10.006;2023-07-16T10:46:43;7.72;;;1.40;;
66429;SDS011;53242;51.694;10.006;2023-07-16T10:49:06;4.53;;;1.65;;
66429;SDS011;53242;51.694;10.006;2023-07-16T10:51:29;3.08;;;1.50;;
66429;SDS011;53242;51.694;10.006;2023-07-16T10:53:51;3.80;;;1.50;;
66429;SDS011;53242;51.694;10.006;2023-07-16T10:56:17;5.45;;;1.67;;
66429;SDS011;53242;51.694;10.006;2023-07-16T10:58:41;3.45;;;1.52;;
66429;SDS011;53242;51.694;10.006;2023-07-16T11:01:04;4.53;;;1.73;;
66429;SDS011;53242;51.694;10.006;2023-07-16T11:03:27;5.40;;;1.73;;
66429;SDS011;53242;51.694;10.006;2023-07-16T11:05:49;2.70;;;1.60;;
66429;SDS011;53242;51.694;10.006;2023-07-16T11:08:21;4.57;;;1.63;;
66429;SDS011;53242;51.694;10.006;2023-07-16T11:10:44;5.25;;;1.75;;
66429;SDS011;53242;51.694;10.006;2023-07-16T11:13:06;3.63;;;1.52;;
66429;SDS011;53242;51.694;10.006;2023-07-16T11:15:32;6.05;;;1.60;;
66429;SDS011;53242;51.694;10.006;2023-07-16T11:17:55;6.68;;;1.60;;
66429;SDS011;53242;51.694;10.006;2023-07-16T11:20:19;4.18;;;1.40;;
66429;SDS011;53242;51.694;10.006;2023-07-16T11:22:41;3.97;;;1.63;;
66429;SDS011;53242;51.694;10.006;2023-07-16T11:25:08;5.60;;;1.55;;
66429;SDS011;53242;51.694;10.006;2023-07-16T11:27:33;4.10;;;1.70;;
66429;SDS011;53242;51.694;10.006;2023-07-16T11:29:59;4.43;;;1.55;;
66429;SDS011;53242;51.694;10.006;2023-07-16T11:35:08;4.13;;;1.63;;
66429;SDS011;53242;51.694;10.006;2023-07-16T11:37:33;4.10;;;1.80;;
66429;SDS011;53242;51.694;10.006;2023-07-16T11:40:08;4.63;;;1.80;;
66429;SDS011;53242;51.694;10.006;2023-07-16T11:42:32;4.72;;;1.65;;
66429;SDS011;53242;51.694;10.006;2023-07-16T11:44:56;5.18;;;1.70;;
66429;SDS011;53242;51.694;10.006;2023-07-16T11:47:19;5.53;;;2.05;;
66429;SDS011;53242;51.694;10.006;2023-07-16T11:49:41;5.32;;;1.90;;
66429;SDS011;53242;51.694;10.006;2023-07-16T11:52:04;4.38;;;1.73;;
66429;SDS011;53242;51.694;10.006;2023-07-16T11:54:26;5.25;;;1.83;;
66429;SDS011;53242;51.694;10.006;2023-07-16T11:56:49;8.27;;;2.15;;
66429;SDS011;53242;51.694;10.006;2023-07-16T11:59:11;5.45;;;2.08;;
66429;SDS011;53242;51.694;10.006;2023-07-16T12:01:34;5.45;;;2.00;;
66429;SDS011;53242;51.694;10.006;2023-07-16T12:03:56;4.95;;;1.77;;
66429;SDS011;53242;51.694;10.006;2023-07-16T12:06:18;4.38;;;1.70;;
66429;SDS011;53242;51.694;10.006;2023-07-16T12:08:41;5.75;;;1.77;;
66429;SDS011;53242;51.694;10.006;2023-07-16T12:11:03;3.78;;;1.98;;
66429;SDS011;53242;51.694;10.006;2023-07-16T12:13:26;4.78;;;2.13;;
66429;SDS011;53242;51.694;10.006;2023-07-16T12:15:48;6.32;;;1.90;;
66429;SDS011;53242;51.694;10.006;2023-07-16T12:18:10;5.47;;;1.80;;
66429;SDS011;53242;51.694;10.006;2023-07-16T12:20:33;5.55;;;2.10;;
66429;SDS011;53242;51.694;10.006;2023-07-16T12:22:56;4.82;;;1.67;;
66429;SDS011;53242;51.694;10.006;2023-07-16T12:25:19;6.05;;;2.08;;
66429;SDS011;53242;51.694;10.006;2023-07-16T12:27:42;4.40;;;1.77;;
66429;SDS011;53242;51.694;10.006;2023-07-16T12:30:05;4.78;;;1.90;;
66429;SDS011;53242;51.694;10.006;2023-07-16T12:32:29;3.10;;;1.40;;
66429;SDS011;53242;51.694;10.006;2023-07-16T12:34:51;5.03;;;1.90;;
66429;SDS011;53242;51.694;10.006;2023-07-16T12:37:13;5.47;;;2.03;;
66429;SDS011;53242;51.694;10.006;2023-07-16T12:39:36;4.40;;;1.52;;
66429;SDS011;53242;51.694;10.006;2023-07-16T12:41:58;5.43;;;1.83;;
66429;SDS011;53242;51.694;10.006;2023-07-16T12:44:21;7.53;;;2.33;;
66429;SDS011;53242;51.694;10.006;2023-07-16T12:46:43;4.97;;;1.80;;
66429;SDS011;53242;51.694;10.006;2023-07-16T12:49:05;4.70;;;1.83;;
66429;SDS011;53242;51.694;10.006;2023-07-16T12:51:28;5.35;;;2.17;;
66429;SDS011;53242;51.694;10.006;2023-07-16T12:53:50;4.15;;;1.52;;
66429;SDS011;53242;51.694;10.006;2023-07-16T12:56:13;5.00;;;1.90;;
66429;SDS011;53242;51.694;10.006;2023-07-16T12:58:35;7.53;;;1.88;;
66429;SDS011;53242;51.694;10.006;2023-07-16T13:00:57;3.88;;;1.80;;
66429;SDS011;53242;51.694;10.006;2023-07-16T13:03:20;6.22;;;1.70;;
66429;SDS011;53242;51.694;10.006;2023-07-16T13:05:43;5.68;;;1.90;;
66429;SDS011;53242;51.694;10.006;2023-07-16T13:08:07;3.38;;;1.60;;
66429;SDS011;53242;51.694;10.006;2023-07-16T13:10:29;4.82;;;2.22;;
66429;SDS011;53242;51.694;10.006;2023-07-16T13:12:51;5.28;;;1.90;;
66429;SDS011;53242;51.694;10.006;2023-07-16T13:15:16;7.25;;;2.47;;
66429;SDS011;53242;51.694;10.006;2023-07-16T13:17:39;5.18;;;1.98;;
66429;SDS011;53242;51.694;10.006;2023-07-16T13:20:01;5.45;;;1.80;;
66429;SDS011;53242;51.694;10.006;2023-07-16T13:22:25;3.90;;;1.70;;
66429;SDS011;53242;51.694;10.006;2023-07-16T13:24:47;4.45;;;1.90;;
66429;SDS011;53242;51.694;10.006;2023-07-16T13:27:09;5.32;;;1.95;;
66429;SDS011;53242;51.694;10.006;2023-07-16T13:29:41;5.68;;;1.63;;
66429;SDS011;53242;51.694;10.006;2023-07-16T13:32:03;5.13;;;2.00;;
66429;SDS011;53242;51.694;10.006;2023-07-16T13:34:26;3.92;;;1.83;;
66429;SDS011;53242;51.694;10.006;2023-07-16T13:36:48;6.13;;;2.10;;
66429;SDS011;53242;51.694;10.006;2023-07-16T13:39:11;5.50;;;1.75;;
66429;SDS011;53242;51.694;10.006;2023-07-16T13:41:35;4.35;;;1.80;;
66429;SDS011;53242;51.694;10.006;2023-07-16T13:43:58;3.45;;;1.70;;
66429;SDS011;53242;51.694;10.006;2023-07-16T13:46:20;5.63;;;2.10;;
66429;SDS011;53242;51.694;10.006;2023-07-16T13:48:43;3.40;;;1.65;;
66429;SDS011;53242;51.694;10.006;2023-07-16T13:51:05;4.45;;;2.03;;
66429;SDS011;53242;51.694;10.006;2023-07-16T13:53:27;4.70;;;2.05;;
66429;SDS011;53242;51.694;10.006;2023-07-16T13:55:50;4.72;;;1.98;;
66429;SDS011;53242;51.694;10.006;2023-07-16T13:58:12;5.72;;;1.98;;
66429;SDS011;53242;51.694;10.006;2023-07-16T14:02:58;5.80;;;2.10;;
66429;SDS011;53242;51.694;10.006;2023-07-16T14:05:21;5.55;;;2.10;;
66429;SDS011;53242;51.694;10.006;2023-07-16T14:07:44;4.30;;;1.90;;
66429;SDS011;53242;51.694;10.006;2023-07-16T14:10:07;5.85;;;2.40;;
66429;SDS011;53242;51.694;10.006;2023-07-16T14:12:29;5.07;;;2.17;;
66429;SDS011;53242;51.694;10.006;2023-07-16T14:14:52;6.78;;;2.35;;
66429;SDS011;53242;51.694;10.006;2023-07-16T14:17:14;5.68;;;2.17;;
66429;SDS011;53242;51.694;10.006;2023-07-16T14:19:36;4.90;;;2.25;;
66429;SDS011;53242;51.694;10.006;2023-07-16T14:21:59;5.68;;;2.22;;
66429;SDS011;53242;51.694;10.006;2023-07-16T14:24:21;6.22;;;2.08;;
66429;SDS011;53242;51.694;10.006;2023-07-16T14:26:44;4.68;;;2.10;;